Time;durP1;ratioP1;P1;durP2;ratioP2;P2;SDS_P1;SDS_P2;PMS_P1;PMS_P2;Temp;Humidity;BMP_temperature;BMP_pressure;BME280_temperature;BME280_humidity;BME280_pressure;Samples;Min_cycle;Max_cycle;Signal;HPM_P1;HPM_P2
2022/05/27 00:01:52;;;;;;;;;1.00;1.00;;;;;;;;5003713;28;45878;-67
2022/05/27 00:04:17;;;;;;;;;0.75;0.75;;;;;;;;5007086;28;45914;-67
2022/05/27 00:06:43;;;;;;;;;0.25;0.25;;;;;;;;5002331;28;45738;-67
2022/05/27 00:09:08;;;;;;;;;1.25;1.25;;;;;;;;5012229;28;45422;-66
2022/05/27 00:11:33;;;;;;;;;0.00;0.00;;;;;;;;5016384;28;45320;-66
2022/05/27 00:13:59;;;;;;;;;1.00;1.00;;;;;;;;5011109;28;45524;-67
2022/05/27 00:16:24;;;;;;;;;2.00;1.75;;;;;;;;5001827;28;45399;-66
2022/05/27 00:18:49;;;;;;;;;0.75;0.25;;;;;;;;5006130;28;45316;-67
2022/05/27 00:21:15;;;;;;;;;0.75;0.75;;;;;;;;4996995;28;45388;-66
2022/05/27 00:23:40;;;;;;;;;1.25;0.25;;;;;;;;4986959;28;45458;-65
2022/05/27 00:26:06;;;;;;;;;0.00;0.00;;;;;;;;4996916;28;45677;-67
2022/05/27 00:28:32;;;;;;;;;0.50;0.50;;;;;;;;4997975;28;46380;-68
2022/05/27 00:30:57;;;;;;;;;3.00;0.75;;;;;;;;5002528;28;47402;-66
2022/05/27 00:33:22;;;;;;;;;1.00;1.00;;;;;;;;5006103;28;45679;-65
2022/05/27 00:35:48;;;;;;;;;0.50;0.50;;;;;;;;4988269;28;45472;-66
2022/05/27 00:38:13;;;;;;;;;0.00;0.00;;;;;;;;4996017;28;45974;-66
2022/05/27 00:40:40;;;;;;;;;0.75;0.75;;;;;;;;4981800;28;46551;-67
2022/05/27 00:43:06;;;;;;;;;1.50;0.50;;;;;;;;5010712;28;45621;-67
2022/05/27 00:45:33;;;;;;;;;0.00;0.00;;;;;;;;5016789;28;45593;-67
2022/05/27 00:47:59;;;;;;;;;0.25;0.25;;;;;;;;5015024;28;45739;-67
2022/05/27 00:50:27;;;;;;;;;1.00;1.00;;;;;;;;5030312;28;45521;-68
2022/05/27 00:52:53;;;;;;;;;1.00;1.00;;;;;;;;5028695;28;45760;-67
2022/05/27 00:55:20;;;;;;;;;4.25;0.25;;;;;;;;5031396;28;45442;-67
2022/05/27 00:57:50;;;;;;;;;1.00;1.00;;;;;;;;5018761;28;48600;-67
2022/05/27 01:00:18;;;;;;;;;1.00;1.00;;;;;;;;5031582;28;45609;-66
2022/05/27 01:02:44;;;;;;;;;2.00;1.00;;;;;;;;4998324;28;45221;-65
2022/05/27 01:05:11;;;;;;;;;0.75;0.75;;;;;;;;5008155;28;45719;-66
2022/05/27 01:07:36;;;;;;;;;1.00;1.00;;;;;;;;5028189;28;45564;-66
2022/05/27 01:10:03;;;;;;;;;4.25;1.50;;;;;;;;5032212;28;45450;-67
2022/05/27 01:12:31;;;;;;;;;1.00;1.00;;;;;;;;5013208;28;47577;-66
2022/05/27 01:15:15;;;;;;;;;1.75;1.00;;;;;;;;5030481;28;45530;-66
2022/05/27 01:18:08;;;;;;;;;1.00;1.00;;;;;;;;5002691;28;47631;-65
2022/05/27 01:20:33;;;;;;;;;2.00;1.00;;;;;;;;5019796;28;46161;-65
2022/05/27 01:23:04;;;;;;;;;1.00;1.00;;;;;;;;5027011;28;45839;-65
2022/05/27 01:25:33;;;;;;;;;1.50;1.00;;;;;;;;5030483;28;45381;-65
2022/05/27 01:28:17;;;;;;;;;1.25;1.25;;;;;;;;5029272;28;48199;-66
2022/05/27 01:31:06;;;;;;;;;0.50;0.50;;;;;;;;5019279;28;45389;-66
2022/05/27 01:33:37;;;;;;;;;2.50;1.50;;;;;;;;5018773;28;45494;-65
2022/05/27 01:36:20;;;;;;;;;1.00;1.00;;;;;;;;5018219;28;45546;-66
2022/05/27 01:38:48;;;;;;;;;3.00;1.00;;;;;;;;5018324;28;46364;-67
2022/05/27 01:41:21;;;;;;;;;1.00;1.00;;;;;;;;5000424;28;45779;-66
2022/05/27 01:43:59;;;;;;;;;4.00;2.50;;;;;;;;4995900;28;45315;-66
2022/05/27 01:46:41;;;;;;;;;2.00;1.25;;;;;;;;5009334;28;45585;-65
2022/05/27 01:49:22;;;;;;;;;1.25;1.25;;;;;;;;5012047;28;45473;-66
2022/05/27 01:51:55;;;;;;;;;2.00;2.00;;;;;;;;5013420;28;45410;-66
2022/05/27 01:54:35;;;;;;;;;1.75;1.75;;;;;;;;5011490;28;45629;-65
2022/05/27 01:57:05;;;;;;;;;1.25;1.00;;;;;;;;5011651;28;45485;-65
2022/05/27 01:59:31;;;;;;;;;1.00;1.00;;;;;;;;4993869;28;48043;-65
2022/05/27 02:02:00;;;;;;;;;1.50;1.50;;;;;;;;4996267;28;45638;-65
2022/05/27 02:04:30;;;;;;;;;2.50;0.50;;;;;;;;5009347;28;45734;-66
2022/05/27 02:07:02;;;;;;;;;1.75;1.75;;;;;;;;4995822;28;45610;-65
2022/05/27 02:09:53;;;;;;;;;1.50;1.50;;;;;;;;4983419;28;46596;-65
2022/05/27 02:12:37;;;;;;;;;1.25;0.50;;;;;;;;4995421;28;45477;-64
2022/05/27 02:15:12;;;;;;;;;1.00;1.00;;;;;;;;4985268;28;45780;-65
2022/05/27 02:17:40;;;;;;;;;4.25;2.00;;;;;;;;5000135;28;45487;-67
2022/05/27 02:20:10;;;;;;;;;2.25;2.25;;;;;;;;5006684;28;46132;-66
2022/05/27 02:22:38;;;;;;;;;1.00;1.00;;;;;;;;5010760;28;45604;-65
2022/05/27 02:25:07;;;;;;;;;3.00;1.75;;;;;;;;4991348;28;45509;-66
2022/05/27 02:27:37;;;;;;;;;3.00;1.75;;;;;;;;4998968;28;45505;-66
2022/05/27 02:30:07;;;;;;;;;2.75;2.75;;;;;;;;4998445;28;46717;-66
2022/05/27 02:32:35;;;;;;;;;2.00;1.00;;;;;;;;4980553;28;46148;-65
2022/05/27 02:35:08;;;;;;;;;1.00;1.00;;;;;;;;4997968;28;45533;-64
2022/05/27 02:37:44;;;;;;;;;2.25;2.25;;;;;;;;5026277;28;45428;-64
2022/05/27 02:40:30;;;;;;;;;2.25;1.75;;;;;;;;5011967;28;46068;-65
2022/05/27 02:42:55;;;;;;;;;2.00;2.00;;;;;;;;4994515;28;45661;-65
2022/05/27 02:45:40;;;;;;;;;3.50;3.50;;;;;;;;5025872;28;45849;-65
2022/05/27 02:48:06;;;;;;;;;1.00;1.00;;;;;;;;5030919;28;45484;-65
2022/05/27 02:50:40;;;;;;;;;2.00;2.00;;;;;;;;5009415;28;47613;-65
2022/05/27 02:53:12;;;;;;;;;2.50;2.00;;;;;;;;5016947;28;45485;-65
2022/05/27 02:55:37;;;;;;;;;3.00;2.00;;;;;;;;5030845;28;45287;-65
2022/05/27 02:58:02;;;;;;;;;5.25;2.50;;;;;;;;5032958;28;45720;-66
2022/05/27 03:00:31;;;;;;;;;4.00;4.00;;;;;;;;5017331;28;48755;-65
2022/05/27 03:02:59;;;;;;;;;2.25;2.25;;;;;;;;5034048;28;45434;-65
2022/05/27 03:05:45;;;;;;;;;2.25;2.25;;;;;;;;5034064;28;45563;-65
2022/05/27 03:08:25;;;;;;;;;4.25;3.00;;;;;;;;4952792;28;45635;-66
2022/05/27 03:10:56;;;;;;;;;2.25;2.25;;;;;;;;4937959;28;47417;-65
2022/05/27 03:13:25;;;;;;;;;3.00;3.00;;;;;;;;4953035;28;45664;-65
2022/05/27 03:16:07;;;;;;;;;2.75;2.50;;;;;;;;4954798;28;45409;-65
2022/05/27 03:18:32;;;;;;;;;4.00;4.00;;;;;;;;4954268;28;45430;-66
2022/05/27 03:21:00;;;;;;;;;3.25;1.75;;;;;;;;4964386;28;48509;-65
2022/05/27 03:23:29;;;;;;;;;1.25;1.25;;;;;;;;4964598;28;45569;-65
2022/05/27 03:25:54;;;;;;;;;2.00;2.00;;;;;;;;4952781;28;45589;-64
2022/05/27 03:28:25;;;;;;;;;2.25;2.25;;;;;;;;4952768;28;45404;-65
2022/05/27 03:30:59;;;;;;;;;1.25;1.25;;;;;;;;4954359;28;46754;-66
2022/05/27 03:33:28;;;;;;;;;2.50;2.50;;;;;;;;4963995;28;46851;-66
2022/05/27 03:36:01;;;;;;;;;4.25;4.00;;;;;;;;4952097;28;45803;-65
2022/05/27 03:38:52;;;;;;;;;5.25;3.75;;;;;;;;4952222;28;45578;-65
2022/05/27 03:41:32;;;;;;;;;6.50;3.75;;;;;;;;4948979;28;46256;-64
2022/05/27 03:43:57;;;;;;;;;6.00;5.00;;;;;;;;4948315;28;46007;-65
2022/05/27 03:46:34;;;;;;;;;4.00;3.50;;;;;;;;4990617;28;45395;-65
2022/05/27 03:49:00;;;;;;;;;4.75;3.25;;;;;;;;4993540;28;45349;-65
2022/05/27 03:51:28;;;;;;;;;2.00;2.00;;;;;;;;5011486;28;46179;-65
2022/05/27 03:54:05;;;;;;;;;3.75;3.75;;;;;;;;5012953;28;45680;-65
2022/05/27 03:56:32;;;;;;;;;2.75;2.25;;;;;;;;5012018;28;45328;-65
2022/05/27 03:58:57;;;;;;;;;2.75;2.75;;;;;;;;5013251;28;45417;-65
2022/05/27 04:01:24;;;;;;;;;3.75;2.75;;;;;;;;5013093;28;46678;-65
2022/05/27 04:03:50;;;;;;;;;2.00;2.00;;;;;;;;5015289;28;45801;-63
2022/05/27 04:06:16;;;;;;;;;3.25;3.25;;;;;;;;5013176;28;45347;-64
2022/05/27 04:08:41;;;;;;;;;4.00;3.00;;;;;;;;5012958;28;45579;-64
2022/05/27 04:11:06;;;;;;;;;6.25;3.75;;;;;;;;5012447;28;45837;-64
2022/05/27 04:13:31;;;;;;;;;3.00;3.00;;;;;;;;4995395;28;45394;-65
2022/05/27 04:15:56;;;;;;;;;6.00;4.00;;;;;;;;4997232;28;45530;-65
2022/05/27 04:18:22;;;;;;;;;6.00;5.75;;;;;;;;5011482;28;45622;-66
2022/05/27 04:20:47;;;;;;;;;4.00;4.00;;;;;;;;5008161;28;48420;-66
2022/05/27 04:23:12;;;;;;;;;4.00;4.00;;;;;;;;5002588;28;45675;-67
2022/05/27 04:25:38;;;;;;;;;4.00;4.00;;;;;;;;5009860;28;45527;-66
2022/05/27 04:28:03;;;;;;;;;4.25;4.00;;;;;;;;5006568;28;45478;-65
2022/05/27 04:30:28;;;;;;;;;6.00;4.00;;;;;;;;5006805;28;46566;-67
2022/05/27 04:32:54;;;;;;;;;7.50;3.50;;;;;;;;5007061;28;45441;-66
2022/05/27 04:35:19;;;;;;;;;4.75;3.50;;;;;;;;5005590;28;45969;-66
2022/05/27 04:37:44;;;;;;;;;3.00;3.00;;;;;;;;5009181;28;45501;-67
2022/05/27 04:40:10;;;;;;;;;6.00;4.75;;;;;;;;5009833;28;46678;-65
2022/05/27 04:42:35;;;;;;;;;4.25;3.00;;;;;;;;5013764;28;45460;-65
2022/05/27 04:45:00;;;;;;;;;4.00;4.00;;;;;;;;4994514;28;45491;-66
2022/05/27 04:47:25;;;;;;;;;4.75;3.75;;;;;;;;5017927;28;45426;-65
2022/05/27 04:49:51;;;;;;;;;6.00;4.00;;;;;;;;5009183;28;47601;-64
2022/05/27 04:52:16;;;;;;;;;4.00;3.75;;;;;;;;5003302;28;46345;-66
2022/05/27 04:54:42;;;;;;;;;4.25;4.25;;;;;;;;5025391;28;45906;-66
2022/05/27 04:57:09;;;;;;;;;4.75;3.00;;;;;;;;5016532;28;45851;-65
2022/05/27 04:59:36;;;;;;;;;7.25;5.00;;;;;;;;5015119;28;47871;-66
2022/05/27 05:02:02;;;;;;;;;5.75;5.75;;;;;;;;5007466;28;45442;-65
2022/05/27 05:04:27;;;;;;;;;4.75;4.50;;;;;;;;5022842;28;45648;-65
2022/05/27 05:06:52;;;;;;;;;5.00;5.00;;;;;;;;5027747;28;45445;-65
2022/05/27 05:09:18;;;;;;;;;6.75;6.75;;;;;;;;5012248;28;48536;-65
2022/05/27 05:11:43;;;;;;;;;5.25;5.00;;;;;;;;5030652;28;45390;-65
2022/05/27 05:14:08;;;;;;;;;6.75;5.75;;;;;;;;5028985;28;45410;-64
2022/05/27 05:16:33;;;;;;;;;6.75;6.00;;;;;;;;5017565;28;45681;-64
2022/05/27 05:18:58;;;;;;;;;6.25;5.75;;;;;;;;5007323;28;48400;-65
2022/05/27 05:21:24;;;;;;;;;5.00;4.75;;;;;;;;5027947;28;45336;-65
2022/05/27 05:23:49;;;;;;;;;8.00;7.75;;;;;;;;5012662;28;45424;-65
2022/05/27 05:26:14;;;;;;;;;9.50;6.50;;;;;;;;5029797;28;45272;-65
2022/05/27 05:28:39;;;;;;;;;8.00;8.00;;;;;;;;5009344;28;48221;-65
2022/05/27 05:31:06;;;;;;;;;9.50;9.50;;;;;;;;5029558;28;46227;-65
2022/05/27 05:33:31;;;;;;;;;9.25;9.25;;;;;;;;5032738;28;45616;-65
2022/05/27 05:35:56;;;;;;;;;12.25;11.00;;;;;;;;5014341;28;45463;-65
2022/05/27 05:38:22;;;;;;;;;10.75;10.00;;;;;;;;5014322;28;46399;-67
2022/05/27 05:40:47;;;;;;;;;12.00;12.00;;;;;;;;5028048;28;47814;-66
2022/05/27 05:43:13;;;;;;;;;12.25;12.25;;;;;;;;5030468;28;45556;-65
2022/05/27 05:45:38;;;;;;;;;15.25;15.25;;;;;;;;5014594;28;45489;-64
2022/05/27 05:48:04;;;;;;;;;15.50;14.25;;;;;;;;5031660;28;45734;-66
2022/05/27 05:50:29;;;;;;;;;14.00;11.50;;;;;;;;5027209;28;45560;-67
2022/05/27 05:52:54;;;;;;;;;12.75;12.75;;;;;;;;5018582;28;45775;-65
2022/05/27 05:55:20;;;;;;;;;15.25;14.00;;;;;;;;5018045;28;45621;-65
2022/05/27 05:57:46;;;;;;;;;17.75;16.00;;;;;;;;5000103;28;45438;-66
2022/05/27 06:00:13;;;;;;;;;19.50;18.25;;;;;;;;5030220;28;45457;-65
2022/05/27 06:02:39;;;;;;;;;14.75;11.00;;;;;;;;5029473;28;45451;-65
2022/05/27 06:05:04;;;;;;;;;17.00;14.00;;;;;;;;5027426;28;45503;-64
2022/05/27 06:07:30;;;;;;;;;6.50;6.00;;;;;;;;5001023;28;48785;-64
2022/05/27 06:09:56;;;;;;;;;6.50;6.00;;;;;;;;5018164;28;45478;-65
2022/05/27 06:12:23;;;;;;;;;10.00;9.00;;;;;;;;5028698;28;45490;-65
2022/05/27 06:14:49;;;;;;;;;6.50;6.50;;;;;;;;5030729;28;45636;-66
2022/05/27 06:17:14;;;;;;;;;9.75;9.00;;;;;;;;5011277;28;47673;-66
2022/05/27 06:19:39;;;;;;;;;7.25;6.75;;;;;;;;4997500;28;46346;-65
2022/05/27 06:22:05;;;;;;;;;7.25;6.00;;;;;;;;5023703;28;45410;-65
2022/05/27 06:24:30;;;;;;;;;5.00;5.00;;;;;;;;5029566;28;45383;-64
2022/05/27 06:26:55;;;;;;;;;6.25;6.25;;;;;;;;5030689;28;46479;-64
2022/05/27 06:34:48;;;;;;;;;7.50;6.00;;;;;;;;5030424;28;45479;-65
2022/05/27 06:37:21;;;;;;;;;4.25;4.25;;;;;;;;5030247;28;46367;-65
2022/05/27 06:39:47;;;;;;;;;9.25;7.25;;;;;;;;5030585;28;45435;-65
2022/05/27 06:42:13;;;;;;;;;10.25;6.00;;;;;;;;5030710;28;45557;-65
2022/05/27 06:44:38;;;;;;;;;7.25;7.00;;;;;;;;5031824;28;45417;-66
2022/05/27 06:47:04;;;;;;;;;10.00;10.00;;;;;;;;5031242;28;46232;-65
2022/05/27 06:49:29;;;;;;;;;10.00;9.00;;;;;;;;5029820;28;45600;-66
2022/05/27 06:51:55;;;;;;;;;8.75;8.75;;;;;;;;5030484;28;45480;-65
2022/05/27 06:54:20;;;;;;;;;10.50;10.50;;;;;;;;5030616;28;45522;-66
2022/05/27 06:56:49;;;;;;;;;7.50;5.00;;;;;;;;5030591;28;45552;-65
2022/05/27 06:59:16;;;;;;;;;10.75;9.00;;;;;;;;5011197;28;45716;-65
2022/05/27 07:01:41;;;;;;;;;16.50;12.25;;;;;;;;5028265;28;46059;-65
2022/05/27 07:04:06;;;;;;;;;12.25;11.25;;;;;;;;5012145;28;45678;-64
2022/05/27 07:06:34;;;;;;;;;13.00;13.00;;;;;;;;5028447;28;46369;-65
2022/05/27 07:09:03;;;;;;;;;13.00;11.75;;;;;;;;5029354;28;45446;-65
2022/05/27 07:11:29;;;;;;;;;13.25;10.50;;;;;;;;5027879;28;45440;-65
2022/05/27 07:13:54;;;;;;;;;10.00;10.00;;;;;;;;5028215;28;45770;-64
2022/05/27 07:16:19;;;;;;;;;13.50;13.50;;;;;;;;5025323;28;48710;-66
2022/05/27 07:18:44;;;;;;;;;9.00;8.75;;;;;;;;5018886;28;45405;-65
2022/05/27 07:21:10;;;;;;;;;17.00;14.75;;;;;;;;5030519;28;45537;-65
2022/05/27 07:23:35;;;;;;;;;14.50;13.50;;;;;;;;5031550;28;45406;-66
2022/05/27 07:26:00;;;;;;;;;7.50;7.50;;;;;;;;5029055;28;46602;-67
2022/05/27 07:28:25;;;;;;;;;9.25;8.75;;;;;;;;5027657;28;47444;-66
2022/05/27 07:30:53;;;;;;;;;13.75;12.50;;;;;;;;5023348;28;45506;-65
2022/05/27 07:33:18;;;;;;;;;12.75;10.75;;;;;;;;5026637;28;45486;-67
2022/05/27 07:35:44;;;;;;;;;9.00;7.75;;;;;;;;5011046;28;47505;-67
2022/05/27 07:38:09;;;;;;;;;10.75;9.25;;;;;;;;5009119;28;45461;-66
2022/05/27 07:40:34;;;;;;;;;9.75;9.50;;;;;;;;5011285;28;45862;-66
2022/05/27 07:43:00;;;;;;;;;10.75;10.25;;;;;;;;5004412;28;45446;-67
2022/05/27 07:45:29;;;;;;;;;11.75;11.75;;;;;;;;5019210;28;47964;-64
2022/05/27 07:47:55;;;;;;;;;13.75;11.50;;;;;;;;5029207;28;45548;-65
2022/05/27 07:50:21;;;;;;;;;8.00;6.75;;;;;;;;5028365;28;45754;-65
2022/05/27 07:52:47;;;;;;;;;12.75;9.50;;;;;;;;5010880;28;45932;-68
2022/05/27 07:55:12;;;;;;;;;8.75;8.75;;;;;;;;5025748;28;45641;-66
2022/05/27 07:57:45;;;;;;;;;9.25;9.25;;;;;;;;5024753;28;45462;-67
2022/05/27 08:00:21;;;;;;;;;12.00;9.25;;;;;;;;5013539;28;45579;-65
2022/05/27 08:02:46;;;;;;;;;9.75;9.75;;;;;;;;5015146;28;45465;-67
2022/05/27 08:05:31;;;;;;;;;11.50;8.50;;;;;;;;5008108;28;47538;-65
2022/05/27 08:07:58;;;;;;;;;13.50;10.50;;;;;;;;5031674;28;45612;-66
2022/05/27 08:10:24;;;;;;;;;10.75;7.75;;;;;;;;5028942;28;45554;-66
2022/05/27 08:12:50;;;;;;;;;4.25;4.25;;;;;;;;5012044;28;45586;-65
2022/05/27 08:15:15;;;;;;;;;8.50;8.00;;;;;;;;5025829;28;48408;-67
2022/05/27 08:17:40;;;;;;;;;7.25;7.25;;;;;;;;5029875;28;45533;-68
2022/05/27 08:20:06;;;;;;;;;4.25;4.25;;;;;;;;5017149;28;45486;-66
2022/05/27 08:22:32;;;;;;;;;6.75;6.75;;;;;;;;5025805;28;45604;-66
2022/05/27 08:24:57;;;;;;;;;7.50;6.00;;;;;;;;5005990;28;47263;-65
2022/05/27 08:27:22;;;;;;;;;7.00;6.50;;;;;;;;5016499;28;45521;-66
2022/05/27 08:29:48;;;;;;;;;6.75;6.75;;;;;;;;5024191;28;45462;-67
2022/05/27 08:32:13;;;;;;;;;7.00;7.00;;;;;;;;5030954;28;45475;-65
2022/05/27 08:40:25;;;;;;;;;6.25;6.25;;;;;;;;5022620;28;45413;-65
2022/05/27 08:43:30;;;;;;;;;4.75;4.75;;;;;;;;5014948;28;45566;-68
2022/05/27 08:45:58;;;;;;;;;2.25;2.25;;;;;;;;4924084;28;45496;-67
2022/05/27 08:48:26;;;;;;;;;6.00;6.00;;;;;;;;4926330;28;45576;-66
2022/05/27 08:50:58;;;;;;;;;5.00;5.00;;;;;;;;4924767;28;46260;-67
2022/05/27 08:53:32;;;;;;;;;5.50;5.00;;;;;;;;4921735;28;45634;-67
2022/05/27 09:01:38;;;;;;;;;6.75;6.25;;;;;;;;4919328;28;45557;-66
2022/05/27 09:04:23;;;;;;;;;6.25;6.25;;;;;;;;4908317;28;45505;-66
2022/05/27 09:06:50;;;;;;;;;5.50;4.00;;;;;;;;4925122;28;47599;-66
2022/05/27 09:09:21;;;;;;;;;4.00;4.00;;;;;;;;4926330;28;45680;-68
2022/05/27 09:11:47;;;;;;;;;4.00;3.50;;;;;;;;4924541;28;45484;-68
2022/05/27 09:14:19;;;;;;;;;4.75;4.75;;;;;;;;4946776;28;45458;-66
2022/05/27 09:16:54;;;;;;;;;6.25;4.00;;;;;;;;4968418;28;48625;-65
2022/05/27 09:19:58;;;;;;;;;7.00;4.00;;;;;;;;5037794;28;45503;-65
2022/05/27 09:22:35;;;;;;;;;5.00;5.00;;;;;;;;4969522;28;45606;-66
2022/05/27 09:25:15;;;;;;;;;6.75;5.00;;;;;;;;4970395;28;45423;-65
2022/05/27 09:27:59;;;;;;;;;7.00;7.00;;;;;;;;4970894;28;46799;-66
2022/05/27 09:30:24;;;;;;;;;7.25;5.25;;;;;;;;4970122;28;45971;-67
2022/05/27 09:32:52;;;;;;;;;6.75;6.00;;;;;;;;4970533;28;45589;-68
2022/05/27 09:35:20;;;;;;;;;5.00;5.00;;;;;;;;4971771;28;45566;-68
2022/05/27 09:37:49;;;;;;;;;7.00;7.00;;;;;;;;4986410;28;46682;-69
2022/05/27 09:40:20;;;;;;;;;3.75;3.75;;;;;;;;4970417;28;45447;-67
2022/05/27 09:42:58;;;;;;;;;4.25;3.75;;;;;;;;4986293;28;45423;-67
2022/05/27 09:45:23;;;;;;;;;3.50;3.50;;;;;;;;4938119;28;45554;-67
2022/05/27 09:47:49;;;;;;;;;7.00;4.50;;;;;;;;4950572;28;46432;-67
2022/05/27 09:50:25;;;;;;;;;3.75;3.75;;;;;;;;4967614;28;46705;-67
2022/05/27 09:52:53;;;;;;;;;11.00;5.50;;;;;;;;4972588;28;45626;-68
2022/05/27 09:55:23;;;;;;;;;4.75;4.75;;;;;;;;4982627;28;45809;-68
2022/05/27 09:57:56;;;;;;;;;4.25;4.25;;;;;;;;4981563;28;47496;-68
2022/05/27 10:00:35;;;;;;;;;4.75;4.75;;;;;;;;4995525;28;45388;-67
2022/05/27 10:03:18;;;;;;;;;7.00;7.00;;;;;;;;5008733;28;45327;-68
2022/05/27 10:05:49;;;;;;;;;4.25;4.25;;;;;;;;5002356;28;45464;-67
2022/05/27 10:08:24;;;;;;;;;6.75;6.75;;;;;;;;5010514;28;46159;-67
2022/05/27 10:10:49;;;;;;;;;8.00;7.50;;;;;;;;5011176;28;45395;-68
2022/05/27 10:13:28;;;;;;;;;4.00;4.00;;;;;;;;5006399;28;45457;-68
2022/05/27 10:16:02;;;;;;;;;6.00;5.00;;;;;;;;5016031;28;45597;-68
2022/05/27 10:18:27;;;;;;;;;8.00;5.00;;;;;;;;4993137;28;46568;-67
2022/05/27 10:20:57;;;;;;;;;6.00;5.50;;;;;;;;5011156;28;45719;-68
2022/05/27 10:23:34;;;;;;;;;4.00;4.00;;;;;;;;5012853;28;45560;-68
2022/05/27 10:26:17;;;;;;;;;6.50;5.50;;;;;;;;4993435;28;45731;-68
2022/05/27 10:28:42;;;;;;;;;2.00;0.50;;;;;;;;5009261;28;46126;-68
2022/05/27 10:31:14;;;;;;;;;4.75;4.75;;;;;;;;5010896;28;45404;-68
2022/05/27 10:33:41;;;;;;;;;4.50;3.50;;;;;;;;5009734;28;45542;-68
2022/05/27 10:36:25;;;;;;;;;4.00;4.00;;;;;;;;5010726;28;45492;-67
2022/05/27 10:38:56;;;;;;;;;5.00;4.50;;;;;;;;5010612;28;46841;-66
2022/05/27 10:41:44;;;;;;;;;4.50;4.50;;;;;;;;4994701;28;45514;-65
2022/05/27 10:44:16;;;;;;;;;3.00;3.00;;;;;;;;4975036;28;45564;-69
2022/05/27 10:46:54;;;;;;;;;4.75;4.00;;;;;;;;5026423;28;45399;-69
2022/05/27 10:49:46;;;;;;;;;4.25;4.25;;;;;;;;5030668;28;45598;-68
2022/05/27 10:52:31;;;;;;;;;8.75;6.00;;;;;;;;5013551;28;45837;-70
2022/05/27 10:55:10;;;;;;;;;4.00;4.00;;;;;;;;5012410;28;45423;-69
2022/05/27 11:03:49;;;;;;;;;5.00;4.00;;;;;;;;4968413;28;45514;-69
2022/05/27 11:06:35;;;;;;;;;6.00;5.50;;;;;;;;4969154;28;45566;-68
2022/05/27 11:09:24;;;;;;;;;3.00;3.00;;;;;;;;4968932;28;45577;-68
2022/05/27 11:12:04;;;;;;;;;4.25;4.25;;;;;;;;4947763;28;47422;-68
2022/05/27 11:17:32;;;;;;;;;7.00;7.00;;;;;;;;4970130;28;45503;-69
2022/05/27 11:20:12;;;;;;;;;4.75;4.75;;;;;;;;4969921;28;45407;-68
2022/05/27 11:22:51;;;;;;;;;4.75;4.75;;;;;;;;4972179;28;46886;-68
2022/05/27 11:25:46;;;;;;;;;6.00;5.00;;;;;;;;4971781;28;45561;-68
2022/05/27 11:28:17;;;;;;;;;6.25;6.25;;;;;;;;4914837;28;45669;-69
2022/05/27 11:31:01;;;;;;;;;10.50;10.00;;;;;;;;4914969;28;45514;-68
2022/05/27 11:33:37;;;;;;;;;7.75;6.50;;;;;;;;4914704;28;47602;-67
2022/05/27 11:36:11;;;;;;;;;5.00;5.00;;;;;;;;4913694;28;46246;-68
2022/05/27 11:38:39;;;;;;;;;6.25;5.25;;;;;;;;4966896;28;45475;-69
2022/05/27 11:41:04;;;;;;;;;5.25;5.25;;;;;;;;4968902;28;45476;-69
2022/05/27 11:43:37;;;;;;;;;4.00;4.00;;;;;;;;4967264;28;46281;-69
2022/05/27 11:46:02;;;;;;;;;4.00;4.00;;;;;;;;4967187;28;45520;-69
2022/05/27 11:48:30;;;;;;;;;5.25;5.25;;;;;;;;4968878;28;45324;-71
2022/05/27 11:51:14;;;;;;;;;3.50;3.50;;;;;;;;4971686;28;45459;-68
2022/05/27 11:53:45;;;;;;;;;5.50;5.25;;;;;;;;4954352;28;48883;-68
2022/05/27 11:56:18;;;;;;;;;1.50;1.50;;;;;;;;4960442;28;45587;-68
2022/05/27 11:59:00;;;;;;;;;2.00;2.00;;;;;;;;4949959;28;45439;-68
2022/05/27 12:01:27;;;;;;;;;2.00;2.00;;;;;;;;4965527;28;45479;-68
2022/05/27 12:04:05;;;;;;;;;3.00;3.00;;;;;;;;4978787;28;45615;-69
2022/05/27 12:06:52;;;;;;;;;4.00;4.00;;;;;;;;5015291;28;46469;-68
2022/05/27 12:09:24;;;;;;;;;2.00;2.00;;;;;;;;5019005;28;45415;-68
2022/05/27 12:11:52;;;;;;;;;3.00;3.00;;;;;;;;5013865;28;45795;-69
2022/05/27 12:14:33;;;;;;;;;1.00;1.00;;;;;;;;5034678;28;46616;-68
2022/05/27 12:16:59;;;;;;;;;2.00;2.00;;;;;;;;5026815;28;45675;-68
2022/05/27 12:19:29;;;;;;;;;2.00;2.00;;;;;;;;5010075;28;45584;-68
2022/05/27 12:22:04;;;;;;;;;2.00;2.00;;;;;;;;5034717;28;45431;-67
2022/05/27 12:24:33;;;;;;;;;1.25;1.25;;;;;;;;5032854;28;45481;-68
2022/05/27 12:26:59;;;;;;;;;1.50;1.50;;;;;;;;5014919;28;46222;-69
2022/05/27 12:29:26;;;;;;;;;3.00;3.00;;;;;;;;5030200;28;45505;-69
2022/05/27 12:31:53;;;;;;;;;1.00;1.00;;;;;;;;5029823;28;45973;-69
2022/05/27 12:34:34;;;;;;;;;1.25;1.25;;;;;;;;5011018;28;47607;-67
2022/05/27 12:37:11;;;;;;;;;2.00;2.00;;;;;;;;5024412;28;47520;-68
2022/05/27 12:39:37;;;;;;;;;0.50;0.50;;;;;;;;5014585;28;45403;-70
2022/05/27 12:42:19;;;;;;;;;1.25;0.25;;;;;;;;5031570;28;45361;-69
2022/05/27 12:44:45;;;;;;;;;2.50;2.50;;;;;;;;5015120;28;48592;-69
2022/05/27 12:47:17;;;;;;;;;2.00;2.00;;;;;;;;5031943;28;45608;-68
2022/05/27 12:49:44;;;;;;;;;3.00;1.50;;;;;;;;5011146;28;45530;-69
2022/05/27 12:52:28;;;;;;;;;3.75;2.50;;;;;;;;5025451;28;45712;-68
2022/05/27 12:54:53;;;;;;;;;1.25;1.25;;;;;;;;5012813;28;46390;-69
2022/05/27 13:03:28;;;;;;;;;2.00;2.00;;;;;;;;5017574;28;45435;-68
2022/05/27 13:06:11;;;;;;;;;2.00;2.00;;;;;;;;5032129;28;46546;-69
2022/05/27 13:08:48;;;;;;;;;1.25;1.25;;;;;;;;5032560;28;45564;-69
2022/05/27 13:11:34;;;;;;;;;1.00;1.00;;;;;;;;5031770;28;45414;-69
2022/05/27 13:13:59;;;;;;;;;1.00;1.00;;;;;;;;5007095;28;45518;-69
2022/05/27 13:16:43;;;;;;;;;0.75;0.75;;;;;;;;5031961;28;45589;-69
2022/05/27 13:19:19;;;;;;;;;1.25;1.25;;;;;;;;5032018;28;45362;-70
2022/05/27 13:22:07;;;;;;;;;0.00;0.00;;;;;;;;5013971;28;45494;-68
2022/05/27 13:24:34;;;;;;;;;3.00;1.75;;;;;;;;5031593;28;45464;-69
2022/05/27 13:26:59;;;;;;;;;1.67;1.67;;;;;;;;5031857;28;46434;-68
2022/05/27 13:29:35;;;;;;;;;1.00;1.00;;;;;;;;5016050;28;45489;-68
2022/05/27 13:32:11;;;;;;;;;1.00;1.00;;;;;;;;5014327;28;46491;-69
2022/05/27 13:35:15;;;;;;;;;1.00;0.00;;;;;;;;5030318;28;45394;-68
2022/05/27 13:37:40;;;;;;;;;2.75;1.00;;;;;;;;4969964;28;46454;-68
2022/05/27 13:40:06;;;;;;;;;0.00;0.00;;;;;;;;4970211;28;45677;-68
2022/05/27 13:42:33;;;;;;;;;2.00;0.75;;;;;;;;4969546;28;45631;-70
2022/05/27 13:45:00;;;;;;;;;1.00;1.00;;;;;;;;4958552;28;45566;-68
2022/05/27 13:47:27;;;;;;;;;0.25;0.25;;;;;;;;4952383;28;46138;-68
2022/05/27 13:49:52;;;;;;;;;0.00;0.00;;;;;;;;4935404;28;45397;-69
2022/05/27 13:52:22;;;;;;;;;0.00;0.00;;;;;;;;4950921;28;45356;-68
2022/05/27 13:54:58;;;;;;;;;1.50;0.75;;;;;;;;4937488;28;45492;-69
2022/05/27 13:57:27;;;;;;;;;0.00;0.00;;;;;;;;4934417;28;47561;-68
2022/05/27 13:59:53;;;;;;;;;0.00;0.00;;;;;;;;4950230;28;45703;-69
2022/05/27 14:02:21;;;;;;;;;0.25;0.25;;;;;;;;4952281;28;45400;-67
2022/05/27 14:04:52;;;;;;;;;0.25;0.25;;;;;;;;4935095;28;46013;-68
2022/05/27 14:07:28;;;;;;;;;1.00;1.00;;;;;;;;4951822;28;45800;-68
2022/05/27 14:09:58;;;;;;;;;1.00;1.00;;;;;;;;5009607;28;45437;-69
2022/05/27 14:12:28;;;;;;;;;1.75;0.75;;;;;;;;5009950;28;45577;-68
2022/05/27 14:14:55;;;;;;;;;1.00;1.00;;;;;;;;4993567;28;45442;-69
2022/05/27 14:17:22;;;;;;;;;0.50;0.00;;;;;;;;5011722;28;45731;-69
2022/05/27 14:19:57;;;;;;;;;0.50;0.50;;;;;;;;5011056;28;45368;-68
2022/05/27 14:22:44;;;;;;;;;0.75;0.75;;;;;;;;5011335;28;45408;-69
2022/05/27 14:25:15;;;;;;;;;1.25;0.00;;;;;;;;5011024;28;45510;-68
2022/05/27 14:27:43;;;;;;;;;1.75;1.75;;;;;;;;5011069;28;46627;-69
2022/05/27 14:30:13;;;;;;;;;0.00;0.00;;;;;;;;5009780;28;45560;-69
2022/05/27 14:32:38;;;;;;;;;1.75;1.75;;;;;;;;4994996;28;45405;-69
2022/05/27 14:35:05;;;;;;;;;1.50;1.50;;;;;;;;5013830;28;45401;-69
2022/05/27 14:37:34;;;;;;;;;1.25;1.25;;;;;;;;5005410;28;46604;-70
2022/05/27 14:40:02;;;;;;;;;1.50;1.50;;;;;;;;5010668;28;45545;-68
2022/05/27 14:42:27;;;;;;;;;2.00;2.00;;;;;;;;5011099;28;45437;-68
2022/05/27 14:44:53;;;;;;;;;1.50;1.00;;;;;;;;5003601;28;45489;-69
2022/05/27 14:47:30;;;;;;;;;2.00;2.00;;;;;;;;5028164;28;47569;-69
2022/05/27 14:49:57;;;;;;;;;1.25;1.25;;;;;;;;5028719;28;45485;-69
2022/05/27 14:52:34;;;;;;;;;2.00;1.25;;;;;;;;5029560;28;45509;-69
2022/05/27 14:55:02;;;;;;;;;2.00;2.00;;;;;;;;5032912;28;45588;-70
2022/05/27 14:57:38;;;;;;;;;2.00;2.00;;;;;;;;5034283;28;46236;-69
2022/05/27 15:00:06;;;;;;;;;1.25;1.25;;;;;;;;5033258;28;45470;-69
2022/05/27 15:02:35;;;;;;;;;2.75;2.75;;;;;;;;5014036;28;45484;-68
2022/05/27 15:05:05;;;;;;;;;3.00;3.00;;;;;;;;5013228;28;45679;-68
2022/05/27 15:07:32;;;;;;;;;2.75;2.25;;;;;;;;5029704;28;46088;-68
2022/05/27 15:09:59;;;;;;;;;3.75;3.50;;;;;;;;5016001;28;46139;-68
2022/05/27 15:12:32;;;;;;;;;3.00;3.00;;;;;;;;5034463;28;45452;-68
2022/05/27 15:14:58;;;;;;;;;4.00;3.00;;;;;;;;5015545;28;45932;-68
2022/05/27 15:17:24;;;;;;;;;3.75;3.75;;;;;;;;5030187;28;46508;-70
2022/05/27 15:19:56;;;;;;;;;4.00;3.00;;;;;;;;5013021;28;45633;-68
2022/05/27 15:22:22;;;;;;;;;4.00;4.00;;;;;;;;5032483;28;45742;-69
2022/05/27 15:24:47;;;;;;;;;4.25;4.25;;;;;;;;5034322;28;45498;-68
2022/05/27 15:35:49;;;;;;;;;0.75;0.75;;;;;;;;5035410;28;45539;-69
2022/05/27 15:38:16;;;;;;;;;3.75;3.00;;;;;;;;5033764;28;47841;-68
2022/05/27 15:40:43;;;;;;;;;1.25;1.25;;;;;;;;5028758;28;46484;-69